Time;durP1;ratioP1;P1;durP2;ratioP2;P2;SDS_P1;SDS_P2;PMS_P1;PMS_P2;Temp;Humidity;BMP_temperature;BMP_pressure;BME280_temperature;BME280_humidity;BME280_pressure;Samples;Min_cycle;Max_cycle;Signal;HPM_P1;HPM_P2
2024/01/12 00:00:41;;;;;;;62.13;38.80;;;-6.20;23.60;;;;;;4977604;28;20701;-68
2024/01/12 00:03:07;;;;;;;72.97;37.90;;;-6.30;23.10;;;;;;4957721;28;20189;-68
2024/01/12 00:05:32;;;;;;;59.03;36.07;;;-6.30;23.20;;;;;;4974951;28;20228;-67
2024/01/12 00:07:58;;;;;;;62.60;38.00;;;-6.30;23.20;;;;;;4974690;28;20177;-68
2024/01/12 00:10:23;;;;;;;63.67;40.73;;;-6.30;22.90;;;;;;4974818;28;20244;-69
2024/01/12 00:12:49;;;;;;;66.53;40.30;;;-6.30;23.40;;;;;;4974218;28;20173;-69
2024/01/12 00:15:15;;;;;;;62.17;37.60;;;-6.30;23.00;;;;;;4974422;28;20264;-70
2024/01/12 00:17:43;;;;;;;63.37;36.63;;;-6.30;23.80;;;;;;4956461;28;20301;-69
2024/01/12 00:20:10;;;;;;;56.63;36.28;;;-6.30;24.10;;;;;;4973512;28;20574;-68
2024/01/12 00:22:35;;;;;;;69.38;37.92;;;-6.30;23.70;;;;;;4973130;28;20200;-68
2024/01/12 00:25:01;;;;;;;68.97;37.40;;;-6.30;23.00;;;;;;4973782;28;20541;-68
2024/01/12 00:27:26;;;;;;;65.63;36.80;;;-6.30;23.20;;;;;;4973420;28;20188;-68
2024/01/12 00:29:52;;;;;;;78.43;38.97;;;-6.30;23.40;;;;;;4973161;28;20196;-69
2024/01/12 00:32:18;;;;;;;82.27;44.10;;;-6.40;23.90;;;;;;4972933;28;20641;-68
2024/01/12 00:34:43;;;;;;;69.53;45.10;;;-6.30;24.40;;;;;;4973243;28;20173;-69
2024/01/12 00:37:12;;;;;;;59.63;41.50;;;-6.30;24.80;;;;;;4973389;28;20655;-68
2024/01/12 00:39:37;;;;;;;74.10;43.75;;;-6.20;25.20;;;;;;4972200;28;20543;-69
2024/01/12 00:42:04;;;;;;;68.27;41.00;;;-6.20;25.60;;;;;;4955735;28;20302;-68
2024/01/12 00:44:29;;;;;;;65.32;42.70;;;-6.20;26.10;;;;;;4973330;28;20185;-69
2024/01/12 00:46:55;;;;;;;72.33;40.43;;;-6.20;25.70;;;;;;4955803;28;20597;-69
2024/01/12 00:49:21;;;;;;;64.00;38.23;;;-6.20;25.30;;;;;;4955412;28;20177;-69
2024/01/12 00:51:47;;;;;;;70.78;41.25;;;-6.10;25.10;;;;;;4955838;28;20216;-69
2024/01/12 00:54:15;;;;;;;64.07;39.63;;;-6.10;23.70;;;;;;4972781;28;20173;-70
2024/01/12 00:56:42;;;;;;;60.22;38.83;;;-6.20;23.70;;;;;;4955547;28;20181;-69
2024/01/12 00:59:08;;;;;;;72.72;40.30;;;-6.20;24.00;;;;;;4972720;28;20188;-69
2024/01/12 01:01:34;;;;;;;63.10;38.70;;;-6.20;22.80;;;;;;4972754;28;20225;-69
2024/01/12 01:04:00;;;;;;;61.20;37.43;;;-6.20;22.40;;;;;;4975920;28;20431;-69
2024/01/12 01:06:27;;;;;;;64.78;38.92;;;-6.30;22.40;;;;;;4959178;28;20478;-69
2024/01/12 01:08:53;;;;;;;62.13;38.10;;;-6.40;21.90;;;;;;4976898;28;20181;-68
2024/01/12 01:11:18;;;;;;;75.60;41.03;;;-6.50;22.00;;;;;;4976839;28;20193;-69
2024/01/12 01:13:44;;;;;;;63.27;36.43;;;-6.60;23.30;;;;;;4958873;28;20675;-69
2024/01/12 01:16:10;;;;;;;62.03;38.00;;;-6.60;24.00;;;;;;4976797;28;20178;-69
2024/01/12 01:18:36;;;;;;;66.30;38.65;;;-6.50;24.60;;;;;;4976756;28;20640;-69
2024/01/12 01:21:02;;;;;;;71.57;41.40;;;-6.50;24.40;;;;;;4976467;28;20336;-69
2024/01/12 01:23:27;;;;;;;56.57;36.17;;;-6.50;24.40;;;;;;4976310;28;20436;-69
2024/01/12 01:25:56;;;;;;;62.00;38.40;;;-6.50;24.60;;;;;;4959002;28;20216;-69
2024/01/12 01:28:22;;;;;;;56.80;37.30;;;-6.50;24.00;;;;;;4976079;28;20204;-69
2024/01/12 01:30:47;;;;;;;59.00;39.38;;;-6.50;24.30;;;;;;4976099;28;20196;-69
2024/01/12 01:33:15;;;;;;;50.20;36.20;;;-6.50;24.20;;;;;;4976164;28;20578;-69
2024/01/12 01:35:41;;;;;;;62.30;36.28;;;-6.50;24.20;;;;;;4958690;28;20417;-69
2024/01/12 01:38:07;;;;;;;59.03;36.27;;;-6.50;23.50;;;;;;4976616;28;20260;-69
2024/01/12 01:40:32;;;;;;;68.57;36.07;;;-6.40;23.70;;;;;;4976453;28;20252;-69
2024/01/12 01:43:09;;;;;;;60.17;35.70;;;-6.40;23.30;;;;;;4975993;28;20177;-69
2024/01/12 01:45:36;;;;;;;54.20;35.40;;;-6.50;23.40;;;;;;4958457;28;20232;-69
2024/01/12 01:48:04;;;;;;;69.13;38.45;;;-6.50;22.60;;;;;;4958418;28;20216;-69
2024/01/12 01:50:31;;;;;;;51.65;33.88;;;-6.50;22.60;;;;;;4975798;28;20219;-70
2024/01/12 01:52:57;;;;;;;54.47;35.22;;;-6.50;22.30;;;;;;4958079;28;20204;-70
2024/01/12 01:55:23;;;;;;;59.83;34.10;;;-6.60;21.90;;;;;;4975671;28;20185;-70
2024/01/12 01:57:50;;;;;;;56.45;36.10;;;-6.60;22.00;;;;;;4958311;28;20425;-70
2024/01/12 02:00:17;;;;;;;55.63;35.85;;;-6.70;21.60;;;;;;4975430;28;20351;-71
2024/01/12 02:02:43;;;;;;;59.90;34.92;;;-6.70;21.80;;;;;;4975065;28;20583;-70
2024/01/12 02:05:14;;;;;;;52.87;34.73;;;-6.70;21.60;;;;;;4973606;28;20263;-71
2024/01/12 02:07:42;;;;;;;57.03;34.92;;;-6.70;21.60;;;;;;4968329;28;20181;-70
2024/01/12 02:10:09;;;;;;;56.25;34.30;;;-6.70;21.60;;;;;;4956007;28;20283;-70
2024/01/12 02:12:36;;;;;;;66.95;33.55;;;-6.70;21.70;;;;;;4949307;29;20190;-70
2024/01/12 02:15:02;;;;;;;70.00;35.50;;;-6.70;22.50;;;;;;4956045;28;20237;-70
2024/01/12 02:17:28;;;;;;;57.10;36.42;;;-6.70;22.50;;;;;;4976099;28;20226;-71
2024/01/12 02:19:58;;;;;;;52.63;35.63;;;-6.70;22.00;;;;;;4977126;28;20673;-71
2024/01/12 02:22:26;;;;;;;57.83;35.63;;;-6.70;22.40;;;;;;4959535;28;20209;-70
2024/01/12 02:24:53;;;;;;;53.25;33.38;;;-6.70;22.40;;;;;;4958292;29;20261;-69
2024/01/12 02:27:20;;;;;;;64.40;38.10;;;-6.80;22.20;;;;;;4957680;29;20206;-70
2024/01/12 02:29:47;;;;;;;55.05;34.10;;;-6.80;22.30;;;;;;4970225;28;20299;-70
2024/01/12 02:32:13;;;;;;;60.97;35.72;;;-6.80;22.40;;;;;;4976066;28;20233;-70
2024/01/12 02:34:38;;;;;;;49.47;31.77;;;-6.80;21.90;;;;;;4976606;28;20180;-70
2024/01/12 02:37:04;;;;;;;49.40;34.77;;;-6.70;22.20;;;;;;4975806;28;20617;-69
2024/01/12 02:39:29;;;;;;;49.10;32.80;;;-6.80;21.90;;;;;;4975823;28;20204;-70
2024/01/12 02:41:57;;;;;;;59.13;35.33;;;-6.80;21.90;;;;;;4975275;28;20193;-69
2024/01/12 02:44:23;;;;;;;57.85;34.00;;;-6.80;22.30;;;;;;4975740;28;20181;-70
2024/01/12 02:46:49;;;;;;;63.92;37.80;;;-6.80;21.60;;;;;;4975349;28;20554;-70
2024/01/12 02:49:18;;;;;;;66.37;33.47;;;-6.80;22.30;;;;;;4957540;28;20177;-70
2024/01/12 02:51:44;;;;;;;59.17;35.70;;;-6.80;22.50;;;;;;4975306;28;20276;-70
2024/01/12 02:54:10;;;;;;;55.38;33.35;;;-6.80;21.70;;;;;;4974709;28;20193;-70
2024/01/12 02:56:35;;;;;;;59.93;37.00;;;-6.80;22.40;;;;;;4974786;28;20203;-70
2024/01/12 02:59:01;;;;;;;61.20;35.33;;;-6.90;22.70;;;;;;4957050;28;20185;-69
2024/01/12 03:01:27;;;;;;;54.20;34.80;;;-6.90;22.50;;;;;;4974542;28;20624;-70
2024/01/12 03:03:53;;;;;;;57.25;33.78;;;-6.90;22.60;;;;;;4956922;28;20215;-71
2024/01/12 03:06:19;;;;;;;57.97;36.05;;;-6.80;23.10;;;;;;4974438;28;20240;-70
2024/01/12 03:08:45;;;;;;;62.60;37.17;;;-6.90;23.50;;;;;;4974444;28;20216;-72
2024/01/12 03:11:11;;;;;;;60.37;38.80;;;-6.80;24.10;;;;;;4974206;28;20256;-72
2024/01/12 03:13:36;;;;;;;49.27;30.20;;;-6.80;24.80;;;;;;4974239;28;20412;-70
2024/01/12 03:16:03;;;;;;;55.77;34.63;;;-6.80;24.80;;;;;;4974406;28;20428;-70
2024/01/12 03:18:31;;;;;;;52.15;32.20;;;-6.80;24.80;;;;;;4974165;28;20176;-70
2024/01/12 03:20:57;;;;;;;58.90;33.58;;;-6.70;24.70;;;;;;4974210;28;20228;-69
2024/01/12 03:23:23;;;;;;;52.42;34.92;;;-6.80;24.70;;;;;;4973849;28;20181;-70
2024/01/12 03:25:49;;;;;;;62.77;34.50;;;-6.80;23.90;;;;;;4974160;28;20201;-69
2024/01/12 03:28:18;;;;;;;57.87;34.17;;;-6.90;24.40;;;;;;4956674;28;20424;-71
2024/01/12 03:30:48;;;;;;;56.88;34.92;;;-7.00;24.00;;;;;;4973921;28;20445;-70
2024/01/12 03:33:14;;;;;;;54.47;33.38;;;-6.90;24.80;;;;;;4956524;28;20557;-69
2024/01/12 03:35:41;;;;;;;62.80;35.33;;;-6.90;24.80;;;;;;4956686;28;20181;-69
2024/01/12 03:38:06;;;;;;;55.22;35.63;;;-6.90;23.80;;;;;;4973921;28;20196;-70
2024/01/12 03:40:33;;;;;;;58.00;33.90;;;-6.90;24.00;;;;;;4973836;28;20516;-69
2024/01/12 03:42:58;;;;;;;53.92;34.20;;;-6.90;23.40;;;;;;4973933;28;20260;-70
2024/01/12 03:45:24;;;;;;;52.93;33.20;;;-6.90;23.40;;;;;;4973727;28;20608;-70
2024/01/12 03:47:50;;;;;;;58.80;36.77;;;-7.00;23.40;;;;;;4973659;28;20188;-69
2024/01/12 03:50:15;;;;;;;60.20;35.27;;;-7.00;23.50;;;;;;4973916;28;20235;-71
2024/01/12 03:52:41;;;;;;;58.83;31.70;;;-7.00;23.80;;;;;;4974085;28;20177;-69
2024/01/12 03:55:07;;;;;;;68.95;33.03;;;-7.00;24.50;;;;;;4974189;28;20174;-70
2024/01/12 03:57:32;;;;;;;48.03;30.97;;;-6.90;24.20;;;;;;4973979;28;20196;-70
2024/01/12 03:59:58;;;;;;;58.97;34.20;;;-6.90;24.50;;;;;;4975180;28;20208;-70
2024/01/12 04:02:24;;;;;;;55.50;35.97;;;-6.90;23.80;;;;;;4973486;28;20185;-70
2024/01/12 04:04:52;;;;;;;56.93;35.80;;;-6.90;23.10;;;;;;4973422;28;20182;-70
2024/01/12 04:07:19;;;;;;;60.67;31.33;;;-6.90;23.40;;;;;;4973407;28;20204;-69
2024/01/12 04:09:45;;;;;;;62.28;34.53;;;-6.90;22.90;;;;;;4955745;28;20200;-69
2024/01/12 04:12:11;;;;;;;57.63;35.57;;;-6.90;22.50;;;;;;4973060;28;20185;-69
2024/01/12 04:14:36;;;;;;;59.97;39.50;;;-7.00;22.70;;;;;;4973301;28;20180;-70
2024/01/12 04:17:02;;;;;;;58.87;34.30;;;-7.00;23.30;;;;;;4972909;28;20184;-70
2024/01/12 04:19:27;;;;;;;65.10;37.60;;;-7.00;23.30;;;;;;4973221;28;21800;-71
2024/01/12 04:21:53;;;;;;;54.13;32.90;;;-7.00;24.30;;;;;;4955905;28;20252;-69
2024/01/12 04:24:18;;;;;;;75.13;40.53;;;-7.00;24.30;;;;;;4973039;28;20183;-69
2024/01/12 04:26:44;;;;;;;63.03;36.27;;;-6.90;24.00;;;;;;4972797;28;20211;-70
2024/01/12 04:29:09;;;;;;;66.90;36.63;;;-6.90;23.60;;;;;;4973086;28;20283;-70
2024/01/12 04:31:43;;;;;;;67.67;37.90;;;-7.00;22.50;;;;;;4972692;28;20189;-70
2024/01/12 04:34:08;;;;;;;70.93;37.42;;;-7.00;23.00;;;;;;4955687;28;20226;-70
2024/01/12 04:36:34;;;;;;;57.27;33.70;;;-7.00;23.60;;;;;;4972793;28;20181;-71
2024/01/12 04:39:00;;;;;;;51.23;34.77;;;-7.00;23.40;;;;;;4972328;28;20213;-69
2024/01/12 04:41:25;;;;;;;53.03;35.43;;;-7.00;24.70;;;;;;4972851;28;20454;-70
2024/01/12 04:43:51;;;;;;;58.53;33.53;;;-7.00;23.00;;;;;;4972578;28;20189;-70
2024/01/12 04:46:17;;;;;;;61.37;36.50;;;-7.00;23.80;;;;;;4972721;28;20222;-70
2024/01/12 04:48:42;;;;;;;57.53;32.60;;;-7.00;24.00;;;;;;4972850;28;20207;-70
2024/01/12 04:51:08;;;;;;;58.40;33.83;;;-7.00;22.70;;;;;;4972834;28;20510;-69
2024/01/12 04:53:33;;;;;;;51.03;34.10;;;-7.00;22.90;;;;;;4972640;28;20170;-69
2024/01/12 04:55:59;;;;;;;61.77;35.97;;;-7.00;22.70;;;;;;4972899;28;20199;-70
2024/01/12 04:58:25;;;;;;;62.43;37.50;;;-7.10;22.00;;;;;;4972668;28;20527;-70
2024/01/12 05:00:51;;;;;;;53.27;32.97;;;-7.10;23.20;;;;;;4972551;28;20208;-69
2024/01/12 05:03:16;;;;;;;62.50;35.72;;;-7.20;22.80;;;;;;4972926;28;20425;-69
2024/01/12 05:05:42;;;;;;;68.57;36.63;;;-7.20;22.20;;;;;;4955312;28;20219;-70
2024/01/12 05:08:07;;;;;;;50.47;34.07;;;-7.20;23.00;;;;;;4973124;28;20645;-69
2024/01/12 05:10:33;;;;;;;55.60;34.70;;;-7.20;23.10;;;;;;4972676;28;20699;-70
2024/01/12 05:13:00;;;;;;;52.97;34.37;;;-7.30;23.00;;;;;;4972647;28;20205;-69
2024/01/12 05:15:25;;;;;;;54.15;33.70;;;-7.20;22.80;;;;;;4972736;28;20172;-70
2024/01/12 05:17:52;;;;;;;69.23;36.20;;;-7.30;22.50;;;;;;4955193;28;20183;-71
2024/01/12 05:20:19;;;;;;;55.78;34.42;;;-7.30;23.30;;;;;;4972529;28;20634;-69
2024/01/12 05:22:45;;;;;;;59.58;35.22;;;-7.30;23.50;;;;;;4972595;28;20194;-71
2024/01/12 05:25:11;;;;;;;58.70;32.67;;;-7.30;23.90;;;;;;4972938;28;20209;-70
2024/01/12 05:27:36;;;;;;;58.40;35.07;;;-7.30;23.30;;;;;;4972590;28;20190;-69
2024/01/12 05:30:02;;;;;;;64.33;33.10;;;-7.30;23.20;;;;;;4972295;28;20462;-69
2024/01/12 05:32:28;;;;;;;50.90;32.50;;;-7.40;23.80;;;;;;4972409;28;20196;-70
2024/01/12 05:34:56;;;;;;;50.47;31.17;;;-7.30;24.50;;;;;;4972795;28;20694;-70
2024/01/12 05:37:22;;;;;;;52.70;32.75;;;-7.30;22.80;;;;;;4972683;28;20260;-70
2024/01/12 05:39:47;;;;;;;56.27;33.13;;;-7.30;24.50;;;;;;4972461;28;20194;-70
2024/01/12 05:42:13;;;;;;;50.27;33.23;;;-7.30;23.90;;;;;;4972277;28;20423;-72
2024/01/12 05:44:39;;;;;;;52.53;30.20;;;-7.30;23.20;;;;;;4972364;28;20286;-70
2024/01/12 05:47:04;;;;;;;53.73;31.83;;;-7.30;22.70;;;;;;4972782;28;20214;-70
2024/01/12 05:49:30;;;;;;;43.57;27.80;;;-7.30;22.40;;;;;;4974983;28;20608;-70
2024/01/12 05:51:56;;;;;;;61.67;34.50;;;-7.30;21.60;;;;;;4975705;28;20421;-72
2024/01/12 05:54:22;;;;;;;50.22;33.88;;;-7.30;21.40;;;;;;4976332;28;20183;-73
2024/01/12 05:56:47;;;;;;;62.53;37.10;;;-7.40;21.50;;;;;;4975956;28;20589;-72
2024/01/12 05:59:13;;;;;;;56.23;34.97;;;-7.40;21.50;;;;;;4975503;28;20558;-70
2024/01/12 06:01:39;;;;;;;57.80;35.33;;;-7.40;21.20;;;;;;4975756;28;20675;-70
2024/01/12 06:04:04;;;;;;;59.55;35.90;;;-7.40;21.60;;;;;;4975848;28;20183;-70
2024/01/12 06:06:30;;;;;;;52.33;32.77;;;-7.40;21.30;;;;;;4975617;28;20204;-70
2024/01/12 06:08:55;;;;;;;63.17;38.00;;;-7.40;21.90;;;;;;4958454;28;20637;-70
2024/01/12 06:11:24;;;;;;;58.40;33.10;;;-7.40;21.80;;;;;;4976811;28;20203;-71
2024/01/12 06:13:53;;;;;;;61.50;34.80;;;-7.40;21.90;;;;;;4975540;28;20176;-70
2024/01/12 06:16:22;;;;;;;58.20;33.35;;;-7.40;22.20;;;;;;4976215;28;20563;-72
2024/01/12 06:18:47;;;;;;;55.13;34.22;;;-7.40;22.90;;;;;;4976131;28;20237;-71
2024/01/12 06:21:13;;;;;;;54.87;34.90;;;-7.40;23.40;;;;;;4959045;28;20208;-71
2024/01/12 06:23:38;;;;;;;64.77;35.40;;;-7.40;23.10;;;;;;4975194;28;20696;-69
2024/01/12 06:26:04;;;;;;;59.03;36.07;;;-7.40;22.90;;;;;;4975899;28;20612;-72
2024/01/12 06:28:30;;;;;;;60.47;35.97;;;-7.40;21.90;;;;;;4975649;28;20189;-72
2024/01/12 06:30:56;;;;;;;55.60;38.10;;;-7.40;23.00;;;;;;4975430;28;20223;-71
2024/01/12 06:33:25;;;;;;;75.50;38.87;;;-7.30;23.00;;;;;;4958167;28;20784;-71
2024/01/12 06:35:53;;;;;;;53.92;34.35;;;-7.30;22.30;;;;;;4975100;28;20186;-70
2024/01/12 06:38:22;;;;;;;51.05;33.72;;;-7.40;22.80;;;;;;4974683;28;20219;-71
2024/01/12 06:40:47;;;;;;;59.78;37.60;;;-7.40;23.30;;;;;;4974880;28;20222;-71
2024/01/12 06:43:13;;;;;;;56.17;33.70;;;-7.40;22.30;;;;;;4974981;28;20676;-71
2024/01/12 06:45:39;;;;;;;54.20;35.27;;;-7.30;23.20;;;;;;4975043;28;20240;-70
2024/01/12 06:48:04;;;;;;;52.00;34.77;;;-7.40;22.90;;;;;;4975059;28;20190;-71
2024/01/12 06:50:30;;;;;;;45.03;32.60;;;-7.30;23.20;;;;;;4974961;28;20216;-70
2024/01/12 06:52:56;;;;;;;57.97;35.17;;;-7.30;23.60;;;;;;4975043;28;20415;-71
2024/01/12 06:55:22;;;;;;;61.13;34.92;;;-7.30;23.30;;;;;;4957930;28;20190;-71
2024/01/12 06:57:48;;;;;;;68.97;36.17;;;-7.30;22.80;;;;;;4955761;29;20192;-70
2024/01/12 07:00:15;;;;;;;62.50;39.53;;;-7.30;23.10;;;;;;4959123;28;20296;-70
2024/01/12 07:02:40;;;;;;;61.40;36.17;;;-7.40;22.90;;;;;;4975540;28;20500;-70
2024/01/12 07:05:07;;;;;;;53.27;36.20;;;-7.30;23.90;;;;;;4976342;28;20476;-70
2024/01/12 07:07:32;;;;;;;55.15;35.70;;;-7.30;23.60;;;;;;4976744;28;20252;-70
2024/01/12 07:09:58;;;;;;;60.03;36.07;;;-7.30;23.30;;;;;;4976395;28;20252;-69
2024/01/12 07:12:27;;;;;;;65.40;37.33;;;-7.20;22.90;;;;;;4977058;28;20593;-67
2024/01/12 07:14:58;;;;;;;49.10;33.50;;;-7.30;22.80;;;;;;4977161;28;20237;-70
2024/01/12 07:17:24;;;;;;;63.53;36.75;;;-7.30;23.20;;;;;;4977031;28;20179;-70
2024/01/12 07:19:49;;;;;;;51.80;34.90;;;-7.30;22.70;;;;;;4975292;28;20615;-69
2024/01/12 07:22:15;;;;;;;60.73;36.10;;;-7.30;23.50;;;;;;4974686;28;20175;-73
2024/01/12 07:24:40;;;;;;;55.20;35.13;;;-7.20;23.40;;;;;;4974499;28;20187;-71
2024/01/12 07:27:06;;;;;;;67.43;40.30;;;-7.20;22.20;;;;;;4974374;28;20211;-69
2024/01/12 07:29:32;;;;;;;65.80;37.03;;;-7.30;21.70;;;;;;4974061;28;20186;-69
2024/01/12 07:31:58;;;;;;;62.43;35.13;;;-7.20;22.20;;;;;;4973772;28;20181;-70
2024/01/12 07:34:24;;;;;;;56.77;34.67;;;-7.20;23.40;;;;;;4974695;28;20462;-70
2024/01/12 07:36:50;;;;;;;60.22;36.15;;;-7.20;23.10;;;;;;4970719;28;20185;-69
2024/01/12 07:39:16;;;;;;;60.43;36.80;;;-7.20;23.10;;;;;;4950174;28;20196;-69
2024/01/12 07:41:42;;;;;;;52.93;36.93;;;-7.10;23.00;;;;;;4936270;28;20214;-70
2024/01/12 07:44:08;;;;;;;75.93;40.03;;;-7.00;22.80;;;;;;4969590;28;20199;-70
2024/01/12 07:46:34;;;;;;;55.20;36.70;;;-7.00;21.80;;;;;;4942315;28;20211;-69
2024/01/12 07:49:01;;;;;;;63.03;40.40;;;-7.00;21.90;;;;;;4941488;29;20271;-69
2024/01/12 07:51:30;;;;;;;82.88;37.78;;;-7.10;22.20;;;;;;4950700;28;20212;-69
2024/01/12 07:53:56;;;;;;;64.72;37.60;;;-7.00;23.30;;;;;;4950216;28;20336;-70
2024/01/12 07:56:21;;;;;;;59.47;37.07;;;-6.90;23.50;;;;;;4959891;28;20279;-69
2024/01/12 07:58:47;;;;;;;65.77;39.73;;;-6.90;23.80;;;;;;4969462;28;20219;-71
2024/01/12 08:01:14;;;;;;;64.77;38.13;;;-6.80;23.50;;;;;;4968940;28;20366;-69
2024/01/12 08:03:40;;;;;;;62.95;38.53;;;-6.70;22.80;;;;;;4969631;28;20435;-71
2024/01/12 08:06:06;;;;;;;53.10;34.35;;;-6.70;22.10;;;;;;4969896;28;20452;-69
2024/01/12 08:08:35;;;;;;;53.50;37.40;;;-6.70;22.50;;;;;;4969587;28;20185;-71
2024/01/12 08:11:00;;;;;;;53.70;35.17;;;-6.60;22.60;;;;;;4947863;28;20208;-68
2024/01/12 08:13:29;;;;;;;62.73;36.70;;;-6.50;21.90;;;;;;4969095;28;20183;-70
2024/01/12 08:15:58;;;;;;;74.47;43.47;;;-6.50;21.00;;;;;;4951708;28;20186;-70
2024/01/12 08:18:24;;;;;;;81.95;44.35;;;-6.40;20.50;;;;;;4949846;28;20186;-70
2024/01/12 08:20:50;;;;;;;67.38;46.65;;;-6.40;21.10;;;;;;4933223;29;20695;-71
2024/01/12 08:23:15;;;;;;;60.97;39.07;;;-6.30;20.30;;;;;;4967809;28;20255;-68
2024/01/12 08:25:41;;;;;;;54.97;38.10;;;-6.20;19.70;;;;;;4969252;28;20224;-69
2024/01/12 08:28:07;;;;;;;60.13;36.88;;;-6.20;19.50;;;;;;4970428;28;20208;-69
2024/01/12 08:30:34;;;;;;;54.53;36.67;;;-6.20;19.40;;;;;;4969724;28;20233;-69
2024/01/12 08:33:00;;;;;;;62.20;35.63;;;-6.10;20.40;;;;;;4951845;28;20217;-68
2024/01/12 08:35:29;;;;;;;61.40;36.88;;;-6.10;19.70;;;;;;4969232;28;20196;-69
2024/01/12 08:37:55;;;;;;;61.15;35.30;;;-6.00;20.20;;;;;;4967185;28;20192;-68
2024/01/12 08:40:21;;;;;;;56.90;37.23;;;-6.00;19.70;;;;;;4968836;28;20197;-67
2024/01/12 08:42:47;;;;;;;58.63;36.30;;;-5.90;19.50;;;;;;4968984;28;20424;-68
2024/01/12 08:45:12;;;;;;;54.35;37.92;;;-5.90;19.80;;;;;;4952072;28;20196;-68
2024/01/12 08:47:38;;;;;;;58.00;38.37;;;-5.80;18.50;;;;;;4967640;28;20209;-68
2024/01/12 08:50:05;;;;;;;62.57;34.90;;;-5.70;19.40;;;;;;4986973;23;20252;-67
2024/01/12 08:52:30;;;;;;;58.70;37.85;;;-5.70;19.20;;;;;;4987902;28;21046;-68
2024/01/12 08:54:56;;;;;;;58.67;38.13;;;-5.60;18.60;;;;;;4967307;28;20272;-70
2024/01/12 08:57:21;;;;;;;62.63;37.70;;;-5.60;19.50;;;;;;4976334;28;20194;-67
2024/01/12 08:59:47;;;;;;;65.07;40.13;;;-5.50;19.60;;;;;;4964514;28;20186;-68
2024/01/12 09:02:12;;;;;;;54.63;38.17;;;-5.40;19.90;;;;;;5009878;28;20183;-72
2024/01/12 09:04:38;;;;;;;67.83;40.47;;;-5.30;19.50;;;;;;5011543;28;20474;-70
2024/01/12 09:07:04;;;;;;;52.97;35.07;;;-5.30;18.70;;;;;;5011513;28;20270;-72
2024/01/12 09:09:29;;;;;;;55.27;35.87;;;-5.20;18.40;;;;;;4994646;28;20579;-70
2024/01/12 09:11:55;;;;;;;62.93;38.33;;;-5.10;16.80;;;;;;5011777;28;20196;-70
2024/01/12 09:14:20;;;;;;;60.77;37.30;;;-5.00;16.90;;;;;;5011290;28;20268;-71
2024/01/12 09:16:46;;;;;;;56.90;35.90;;;-4.90;16.00;;;;;;5011860;28;20219;-74
2024/01/12 09:19:12;;;;;;;53.17;32.37;;;-4.90;15.80;;;;;;5011394;28;20179;-70
2024/01/12 09:21:38;;;;;;;57.57;34.47;;;-4.80;15.40;;;;;;5011418;28;20199;-70
2024/01/12 09:24:04;;;;;;;59.67;35.38;;;-4.80;14.00;;;;;;5012581;28;20194;-71
2024/01/12 09:26:30;;;;;;;50.73;33.17;;;-4.80;14.00;;;;;;5015468;28;20275;-71
2024/01/12 09:28:55;;;;;;;60.27;32.70;;;-4.80;13.40;;;;;;5015484;28;20419;-71
2024/01/12 09:31:21;;;;;;;52.27;30.40;;;-4.70;13.30;;;;;;5014918;28;20192;-71
2024/01/12 09:33:47;;;;;;;50.83;35.43;;;-4.70;13.10;;;;;;5014911;28;20207;-71
2024/01/12 09:36:12;;;;;;;49.70;32.40;;;-4.60;13.10;;;;;;5015255;28;20172;-69
2024/01/12 09:38:38;;;;;;;46.07;33.97;;;-4.60;12.70;;;;;;5015220;28;20188;-69
2024/01/12 09:41:04;;;;;;;53.40;31.10;;;-4.50;12.10;;;;;;5014903;28;20227;-70
2024/01/12 09:43:29;;;;;;;51.53;31.10;;;-4.30;11.50;;;;;;5014738;28;20199;-70
2024/01/12 09:46:02;;;;;;;63.90;35.80;;;-4.30;10.80;;;;;;5011131;28;20462;-71
2024/01/12 09:48:29;;;;;;;48.72;30.80;;;-4.20;10.60;;;;;;5010779;28;20480;-69
2024/01/12 09:50:57;;;;;;;51.63;30.88;;;-4.10;10.10;;;;;;5010909;28;20265;-70
2024/01/12 09:53:23;;;;;;;49.67;31.10;;;-4.10;9.00;;;;;;5014509;28;20172;-70
2024/01/12 09:55:49;;;;;;;53.00;32.67;;;-4.10;8.90;;;;;;4997499;28;20206;-70
2024/01/12 09:58:16;;;;;;;54.55;34.90;;;-4.00;10.50;;;;;;5012022;28;21546;-71
2024/01/12 10:00:44;;;;;;;53.88;31.13;;;-3.80;9.80;;;;;;5011387;28;20215;-70
2024/01/12 10:03:11;;;;;;;52.13;29.92;;;-3.70;9.20;;;;;;4992777;28;20191;-71
2024/01/12 10:05:37;;;;;;;52.00;31.88;;;-3.60;8.40;;;;;;4992708;28;20676;-70
2024/01/12 10:08:06;;;;;;;53.03;31.50;;;-3.50;7.70;;;;;;4994784;28;20255;-69
2024/01/12 10:10:32;;;;;;;45.25;27.25;;;-3.40;6.20;;;;;;4996768;28;20200;-70
2024/01/12 10:12:57;;;;;;;40.63;26.17;;;-3.40;5.70;;;;;;5014458;28;20804;-70
2024/01/12 10:15:24;;;;;;;45.03;30.43;;;-3.30;6.30;;;;;;5014325;28;20179;-70
2024/01/12 10:17:51;;;;;;;47.47;30.23;;;-3.20;4.80;;;;;;5014419;28;20195;-72
2024/01/12 10:20:17;;;;;;;53.83;31.55;;;-3.10;5.40;;;;;;5014224;28;20190;-70
2024/01/12 10:22:43;;;;;;;45.57;27.20;;;-3.00;6.00;;;;;;5014181;28;20173;-70
2024/01/12 10:25:08;;;;;;;45.03;26.80;;;-2.90;3.70;;;;;;5014409;28;20229;-70
2024/01/12 10:27:34;;;;;;;50.03;29.30;;;-2.80;3.50;;;;;;5014186;28;20201;-70
2024/01/12 10:30:00;;;;;;;45.33;31.97;;;-2.80;2.30;;;;;;5014116;28;20437;-69
2024/01/12 10:32:26;;;;;;;40.67;27.30;;;-2.70;2.30;;;;;;4996479;28;20214;-69
2024/01/12 10:34:53;;;;;;;37.95;26.50;;;-2.60;2.00;;;;;;5013648;28;20248;-69
2024/01/12 10:37:20;;;;;;;47.25;28.42;;;-2.60;1.60;;;;;;5014382;28;20545;-69
2024/01/12 10:39:47;;;;;;;47.88;27.70;;;-2.50;1.30;;;;;;5014348;28;20181;-70
2024/01/12 10:42:14;;;;;;;52.10;29.13;;;-2.40;2.20;;;;;;5013869;28;20179;-70
2024/01/12 10:44:41;;;;;;;42.28;30.17;;;-2.20;1.20;;;;;;5013986;28;20242;-69
2024/01/12 10:47:17;;;;;;;46.13;30.52;;;-2.20;1.00;;;;;;5013867;28;20687;-69
2024/01/12 10:49:49;;;;;;;42.10;26.75;;;-2.20;1.00;;;;;;5013808;28;20257;-71
2024/01/12 10:52:26;;;;;;;41.97;28.00;;;-2.10;1.10;;;;;;5013987;28;20715;-73
2024/01/12 10:55:04;;;;;;;48.50;29.58;;;-1.90;1.00;;;;;;5013800;28;20203;-69
2024/01/12 10:57:32;;;;;;;40.75;26.05;;;-1.90;1.00;;;;;;4993330;28;20189;-73
2024/01/12 10:59:59;;;;;;;46.38;27.55;;;-1.90;1.00;;;;;;5008889;28;20360;-69
2024/01/12 11:02:25;;;;;;;43.67;28.10;;;-1.80;1.00;;;;;;5013392;28;20182;-69
2024/01/12 11:04:51;;;;;;;42.45;29.48;;;-1.80;1.00;;;;;;4982982;28;20237;-70
2024/01/12 11:07:18;;;;;;;44.85;29.40;;;-1.70;1.00;;;;;;4994243;28;20200;-69
2024/01/12 11:09:43;;;;;;;47.13;31.55;;;-1.60;1.00;;;;;;5001076;28;20193;-70
2024/01/12 11:12:25;;;;;;;44.97;30.60;;;-1.50;1.00;;;;;;5013261;28;20176;-69
2024/01/12 11:14:51;;;;;;;53.65;29.92;;;-1.50;1.00;;;;;;4995999;28;20484;-73
2024/01/12 11:17:16;;;;;;;47.37;29.17;;;-1.40;1.00;;;;;;4990148;28;20197;-71
2024/01/12 11:19:42;;;;;;;52.53;32.67;;;-1.30;1.00;;;;;;5013472;28;20191;-68
2024/01/12 11:22:11;;;;;;;46.03;29.17;;;-1.20;1.00;;;;;;5013431;28;20255;-72
2024/01/12 11:24:38;;;;;;;45.55;30.50;;;-1.20;1.00;;;;;;5014041;28;20174;-70
2024/01/12 11:27:04;;;;;;;48.08;30.10;;;-1.00;1.00;;;;;;5013186;28;20221;-70
2024/01/12 11:29:31;;;;;;;59.53;31.98;;;-0.90;1.00;;;;;;5012227;28;20273;-70
2024/01/12 11:32:04;;;;;;;54.70;31.88;;;-0.80;1.00;;;;;;5011497;28;20180;-69
2024/01/12 11:34:34;;;;;;;46.95;30.08;;;-0.70;1.00;;;;;;5012776;28;20193;-70
2024/01/12 11:37:01;;;;;;;41.28;27.17;;;-0.60;1.00;;;;;;5013389;28;20520;-70
2024/01/12 11:39:34;;;;;;;40.03;27.30;;;-0.60;1.00;;;;;;5013103;28;20186;-70
2024/01/12 11:42:01;;;;;;;43.22;28.95;;;-0.50;1.00;;;;;;4995168;28;20220;-70
2024/01/12 11:44:26;;;;;;;45.40;28.73;;;-0.60;1.00;;;;;;5013059;28;20259;-69
2024/01/12 11:46:52;;;;;;;40.67;28.63;;;-0.50;1.00;;;;;;5012616;28;20287;-71
2024/01/12 11:49:18;;;;;;;55.00;29.93;;;-0.40;1.00;;;;;;5012349;28;20191;-70
2024/01/12 11:51:43;;;;;;;42.30;30.23;;;-0.30;1.00;;;;;;5012867;28;20210;-70
2024/01/12 11:54:10;;;;;;;43.87;26.73;;;-0.10;1.00;;;;;;5011060;28;20423;-68
2024/01/12 11:56:35;;;;;;;47.10;31.30;;;-0.20;1.00;;;;;;5012953;28;20172;-69
2024/01/12 11:59:01;;;;;;;36.63;26.87;;;-0.20;1.00;;;;;;4994802;28;20184;-69
2024/01/12 12:01:27;;;;;;;49.65;30.45;;;-0.20;1.00;;;;;;4995030;28;20203;-69
2024/01/12 12:03:53;;;;;;;43.10;29.80;;;-0.10;1.00;;;;;;4994589;28;20610;-70
2024/01/12 12:06:19;;;;;;;40.05;29.08;;;-0.10;1.00;;;;;;5012464;28;20470;-69
2024/01/12 12:08:46;;;;;;;40.85;28.20;;;-0.10;1.00;;;;;;5012218;28;20179;-69
2024/01/12 12:11:13;;;;;;;46.08;31.02;;;0.00;1.00;;;;;;5012275;28;20200;-69
2024/01/12 12:13:40;;;;;;;46.85;30.70;;;0.00;1.00;;;;;;5012317;28;20169;-69
2024/01/12 12:16:05;;;;;;;43.53;30.15;;;0.10;1.00;;;;;;5012369;28;20184;-69
2024/01/12 12:18:31;;;;;;;40.77;28.70;;;0.00;1.00;;;;;;5012156;28;20639;-69
2024/01/12 12:20:59;;;;;;;45.40;29.40;;;0.10;1.00;;;;;;4994556;28;20678;-69
2024/01/12 12:23:25;;;;;;;53.58;32.72;;;0.20;1.00;;;;;;4994496;28;20461;-70